KCDN/CDN METAR and TAF weather

Enter ICAO airport designator
Station Type Date Time Source
KCDN METAR 2020/06/02 17:35 UTC NOAA

KCDN 021735Z AUTO 24006G12KT 10SM FEW048 28/16 A3018 RMK AO2


Station Type Date Time Source
KCDN Decoded METAR 2020/06/02 17:35 UTC NOAA

Station name not available
Jun 02, 2020 - 01:35 PM EDT / 2020.06.02 1735 UTC
Wind: from the WSW (240 degrees) at 7 MPH (6 KT) gusting to 14 MPH (12 KT):0
Visibility: 10 mile(s):0
Sky conditions: mostly clear
Temperature: 82 F (28 C)
Dew Point: 60 F (16 C)
Relative Humidity: 48%
Pressure (altimeter): 30.18 in. Hg (1022 hPa)
ob: KCDN 021735Z AUTO 24006G12KT 10SM FEW048 28/16 A3018 RMK AO2
cycle: 17

Station Type Date Time Source
KCDN TAF UTC NOAA

Error!

Example: see airport list